createdAt,value
2018-12-22T00:01:54.563Z,1.73
2018-12-22T00:04:22.845Z,1.70
2018-12-22T00:06:51.011Z,1.47
2018-12-22T00:09:19.323Z,3.93
2018-12-22T00:11:47.548Z,2.00
2018-12-22T00:14:15.854Z,2.07
2018-12-22T00:16:44.211Z,2.17
2018-12-22T00:19:12.404Z,1.77
2018-12-22T00:21:40.698Z,1.43
2018-12-22T00:24:08.921Z,2.10
2018-12-22T00:26:37.193Z,2.50
2018-12-22T00:29:05.473Z,1.50
2018-12-22T00:31:33.807Z,1.93
2018-12-22T00:34:02.039Z,1.87
2018-12-22T00:36:30.446Z,2.00
2018-12-22T00:38:58.666Z,2.43
2018-12-22T00:41:26.950Z,1.90
2018-12-22T00:43:55.292Z,2.17
2018-12-22T00:46:23.502Z,1.80
2018-12-22T00:48:51.708Z,1.87
2018-12-22T00:51:19.953Z,1.60
2018-12-22T00:53:48.131Z,2.10
2018-12-22T00:56:16.378Z,1.50
2018-12-22T00:58:44.555Z,1.20
2018-12-22T01:01:12.885Z,1.87
2018-12-22T01:03:41.163Z,1.77
2018-12-22T01:06:09.414Z,1.17
2018-12-22T01:08:37.806Z,1.40
2018-12-22T01:11:06.272Z,1.43
2018-12-22T01:13:34.629Z,0.97
2018-12-22T01:16:02.869Z,1.23
2018-12-22T01:18:31.167Z,0.80
2018-12-22T01:20:59.405Z,0.80
2018-12-22T01:23:27.798Z,0.90
2018-12-22T01:25:56.044Z,0.57
2018-12-22T01:28:24.377Z,0.50
2018-12-22T01:30:52.599Z,0.57
2018-12-22T01:33:20.814Z,0.43
2018-12-22T01:35:49.076Z,0.50
2018-12-22T01:38:17.327Z,0.40
2018-12-22T01:40:45.536Z,0.40
2018-12-22T01:43:13.804Z,0.47
2018-12-22T01:45:42.020Z,0.53
2018-12-22T01:48:10.254Z,0.50
2018-12-22T01:50:38.644Z,0.40
2018-12-22T01:53:06.932Z,0.50
2018-12-22T01:55:35.164Z,0.50
2018-12-22T01:58:03.528Z,0.40
2018-12-22T02:00:32.294Z,0.40
2018-12-22T02:03:00.668Z,0.50
2018-12-22T02:05:28.827Z,0.63
2018-12-22T02:07:57.028Z,0.40
2018-12-22T02:10:25.303Z,0.40
2018-12-22T02:12:53.532Z,0.37
2018-12-22T02:15:21.743Z,0.30
2018-12-22T02:17:49.929Z,0.50
2018-12-22T02:20:18.242Z,0.40
2018-12-22T02:22:46.444Z,0.40
2018-12-22T02:25:14.681Z,0.40
2018-12-22T02:27:42.949Z,0.40
2018-12-22T02:30:11.223Z,0.40
2018-12-22T02:32:39.508Z,0.40
2018-12-22T02:35:07.911Z,0.50
2018-12-22T02:37:36.177Z,0.40
2018-12-22T02:40:05.747Z,0.47
2018-12-22T02:42:33.949Z,0.40
2018-12-22T02:45:02.386Z,0.47
2018-12-22T02:47:30.666Z,0.70
2018-12-22T02:49:58.922Z,0.50
2018-12-22T02:52:27.086Z,0.40
2018-12-22T02:54:55.274Z,0.40
2018-12-22T02:57:23.472Z,0.73
2018-12-22T02:59:51.818Z,0.40
2018-12-22T03:02:20.067Z,0.40
2018-12-22T03:04:48.285Z,0.40
2018-12-22T03:07:16.529Z,0.40
2018-12-22T03:09:44.725Z,0.40
2018-12-22T03:12:13.131Z,0.40
2018-12-22T03:14:41.373Z,0.50
2018-12-22T03:17:09.613Z,0.50
2018-12-22T03:19:37.833Z,0.40
2018-12-22T03:22:06.169Z,0.40
2018-12-22T03:24:34.382Z,0.30
2018-12-22T03:27:02.623Z,0.50
2018-12-22T03:29:30.922Z,0.50
2018-12-22T03:31:59.215Z,0.40
2018-12-22T03:34:27.614Z,0.47
2018-12-22T03:36:55.839Z,0.40
2018-12-22T03:39:24.093Z,0.60
2018-12-22T03:41:52.565Z,0.50
2018-12-22T03:44:20.773Z,0.50
2018-12-22T03:46:48.942Z,0.50
2018-12-22T03:49:17.156Z,0.37
2018-12-22T03:51:45.401Z,0.50
2018-12-22T03:54:13.674Z,0.40
2018-12-22T03:56:41.890Z,0.50
2018-12-22T03:59:10.118Z,0.40
2018-12-22T04:01:38.459Z,0.60
2018-12-22T04:04:06.846Z,0.40
2018-12-22T04:06:35.095Z,0.40
2018-12-22T04:09:09.876Z,0.40
2018-12-22T04:11:38.127Z,0.40
2018-12-22T04:14:06.391Z,0.50
2018-12-22T04:16:34.618Z,0.40
2018-12-22T04:19:03.156Z,0.60
2018-12-22T04:21:31.380Z,0.33
2018-12-22T04:23:59.594Z,0.40
2018-12-22T04:26:27.846Z,0.40
2018-12-22T04:28:56.164Z,0.30
2018-12-22T04:31:24.524Z,0.40
2018-12-22T04:33:52.680Z,0.50
2018-12-22T04:36:20.896Z,0.40
2018-12-22T04:38:49.196Z,0.30
2018-12-22T04:41:17.507Z,0.50
2018-12-22T04:43:45.697Z,0.40
2018-12-22T04:46:13.974Z,0.30
2018-12-22T04:48:42.171Z,0.30
2018-12-22T04:51:10.354Z,0.40
2018-12-22T04:53:38.588Z,0.30
2018-12-22T04:56:06.791Z,0.50
2018-12-22T04:58:34.980Z,0.30
2018-12-22T05:01:03.230Z,0.33
2018-12-22T05:03:31.495Z,0.40
2018-12-22T05:05:59.756Z,0.40
2018-12-22T05:08:28.013Z,0.40
2018-12-22T05:10:56.172Z,0.40
2018-12-22T05:13:24.517Z,0.50
2018-12-22T05:15:52.691Z,0.40
2018-12-22T05:18:20.913Z,0.40
2018-12-22T05:20:49.284Z,0.67
2018-12-22T05:23:17.495Z,0.50
2018-12-22T05:25:45.672Z,0.50
2018-12-22T05:28:13.874Z,0.50
2018-12-22T05:30:42.198Z,0.50
2018-12-22T05:33:10.414Z,0.50
2018-12-22T05:35:38.626Z,0.57
2018-12-22T05:38:06.804Z,0.50
2018-12-22T05:40:35.072Z,0.60
2018-12-22T05:43:03.239Z,0.40
2018-12-22T05:45:31.534Z,0.50
2018-12-22T05:47:59.837Z,0.50
2018-12-22T05:50:28.091Z,0.50
2018-12-22T05:52:56.308Z,0.60
2018-12-22T05:55:24.519Z,0.50
2018-12-22T05:57:52.843Z,0.57
2018-12-22T06:00:21.091Z,0.50
2018-12-22T06:02:49.268Z,0.50
2018-12-22T06:05:17.461Z,0.60
2018-12-22T06:07:45.705Z,1.10
2018-12-22T06:10:13.926Z,0.70
2018-12-22T06:12:42.264Z,0.53
2018-12-22T06:15:10.468Z,0.70
2018-12-22T06:17:38.778Z,0.93
2018-12-22T06:20:09.217Z,0.70
2018-12-22T06:22:37.460Z,0.80
2018-12-22T06:25:06.077Z,0.63
2018-12-22T06:27:34.438Z,0.70
2018-12-22T06:30:09.075Z,0.60
2018-12-22T06:32:33.080Z,0.60
2018-12-22T06:35:01.202Z,0.57
2018-12-22T06:37:29.328Z,0.60
2018-12-22T06:39:57.650Z,0.83
2018-12-22T06:42:25.926Z,0.60
2018-12-22T06:44:54.266Z,0.63
2018-12-22T06:47:22.533Z,0.70
2018-12-22T06:49:50.863Z,0.80
2018-12-22T06:52:19.030Z,0.60
2018-12-22T06:54:47.377Z,0.90
2018-12-22T06:57:15.664Z,1.00
2018-12-22T06:59:43.897Z,0.80
2018-12-22T07:02:12.270Z,0.70
2018-12-22T07:04:40.452Z,0.60
2018-12-22T07:07:08.601Z,0.70
2018-12-22T07:09:36.832Z,0.70
2018-12-22T07:12:05.219Z,0.60
2018-12-22T07:14:33.630Z,0.90
2018-12-22T07:17:01.839Z,0.60
2018-12-22T07:19:30.021Z,0.77
2018-12-22T07:21:58.341Z,1.27
2018-12-22T07:24:26.577Z,1.10
2018-12-22T07:26:54.797Z,1.20
2018-12-22T07:29:22.987Z,1.03
2018-12-22T07:31:51.163Z,0.80
2018-12-22T07:34:19.357Z,1.40
2018-12-22T07:36:47.703Z,1.00
2018-12-22T07:39:15.894Z,0.83
2018-12-22T07:41:44.033Z,0.80
2018-12-22T07:44:12.353Z,0.70
2018-12-22T07:46:40.500Z,0.80
2018-12-22T07:49:09.427Z,1.10
2018-12-22T07:51:37.638Z,1.00
2018-12-22T07:54:05.940Z,1.03
2018-12-22T07:56:34.246Z,1.23
2018-12-22T07:59:02.501Z,1.20
2018-12-22T08:01:30.743Z,1.07
2018-12-22T08:03:59.031Z,1.00
2018-12-22T08:06:27.309Z,1.03
2018-12-22T08:08:55.649Z,1.23
2018-12-22T08:11:23.947Z,0.90
2018-12-22T08:13:52.314Z,1.10
2018-12-22T08:16:20.581Z,1.37
2018-12-22T08:18:48.800Z,1.03
2018-12-22T08:21:17.112Z,0.90
2018-12-22T08:23:45.245Z,0.83
2018-12-22T08:26:13.532Z,1.20
2018-12-22T08:28:41.803Z,1.37
2018-12-22T08:31:10.085Z,1.63
2018-12-22T08:33:38.291Z,1.30
2018-12-22T08:36:06.583Z,1.17
2018-12-22T08:38:34.831Z,1.23
2018-12-22T08:41:03.153Z,1.27
2018-12-22T08:43:31.407Z,1.07
2018-12-22T08:45:59.581Z,1.00
2018-12-22T08:48:27.797Z,1.37
2018-12-22T08:50:56.071Z,1.20
2018-12-22T08:53:24.552Z,1.67
2018-12-22T08:55:52.824Z,1.40
2018-12-22T08:58:27.911Z,1.27
2018-12-22T09:00:56.111Z,0.97
2018-12-22T09:03:24.283Z,0.97
2018-12-22T09:05:52.625Z,1.00
2018-12-22T09:08:21.039Z,1.10
2018-12-22T09:11:05.249Z,1.30
2018-12-22T09:13:33.647Z,1.27
2018-12-22T09:16:02.063Z,1.63
2018-12-22T09:18:30.294Z,1.50
2018-12-22T09:20:59.469Z,1.40
2018-12-22T09:23:27.801Z,1.20
2018-12-22T09:25:56.315Z,1.80
2018-12-22T09:28:24.627Z,1.47
2018-12-22T09:31:00.605Z,1.23
2018-12-22T09:33:23.095Z,1.43
2018-12-22T09:35:51.397Z,1.30
2018-12-22T09:38:19.674Z,1.60
2018-12-22T09:40:47.943Z,1.33
2018-12-22T09:43:16.547Z,1.50
2018-12-22T09:45:44.795Z,1.30
2018-12-22T09:48:12.986Z,1.17
2018-12-22T09:50:41.358Z,1.50
2018-12-22T09:53:10.006Z,1.60
2018-12-22T09:55:38.583Z,1.30
2018-12-22T09:58:06.854Z,1.30
2018-12-22T10:00:35.127Z,1.77
2018-12-22T10:03:03.429Z,1.93
2018-12-22T10:05:33.739Z,1.30
2018-12-22T10:08:01.983Z,1.60
2018-12-22T10:10:30.275Z,1.40
2018-12-22T10:12:58.521Z,1.50
2018-12-22T10:15:27.150Z,1.40
2018-12-22T10:17:56.447Z,1.63
2018-12-22T10:20:26.540Z,2.03
2018-12-22T10:22:54.799Z,1.77
2018-12-22T10:25:23.081Z,1.57
2018-12-22T10:27:51.999Z,1.67
2018-12-22T10:30:21.128Z,1.67
2018-12-22T10:32:49.571Z,1.60
2018-12-22T10:35:25.247Z,1.50
2018-12-22T10:37:53.509Z,1.43
2018-12-22T10:40:21.739Z,1.63
2018-12-22T10:42:49.889Z,1.20
2018-12-22T10:45:18.231Z,1.17
2018-12-22T10:47:46.587Z,1.33
2018-12-22T10:50:14.870Z,1.83
2018-12-22T10:52:43.025Z,1.20
2018-12-22T10:55:11.415Z,1.37
2018-12-22T10:57:40.003Z,1.20
2018-12-22T11:00:11.869Z,1.20
2018-12-22T11:02:40.160Z,1.60
2018-12-22T11:05:10.848Z,1.50
2018-12-22T11:07:39.259Z,1.17
2018-12-22T11:10:13.954Z,1.55
2018-12-22T11:12:42.205Z,1.30
2018-12-22T11:15:10.951Z,1.80
2018-12-22T11:17:39.402Z,1.47
2018-12-22T11:20:08.613Z,1.20
2018-12-22T11:22:37.042Z,1.10
2018-12-22T11:25:10.569Z,1.17
2018-12-22T11:27:38.811Z,1.30
2018-12-22T11:30:13.053Z,1.10
2018-12-22T11:32:41.428Z,1.13
2018-12-22T11:35:09.733Z,1.10
2018-12-22T11:37:38.103Z,1.40
2018-12-22T11:40:08.054Z,1.33
2018-12-22T11:42:36.406Z,1.00
2018-12-22T11:45:05.414Z,1.70
2018-12-22T11:47:38.684Z,1.27
2018-12-22T11:50:10.692Z,1.10
2018-12-22T11:52:39.579Z,1.10
2018-12-22T11:55:08.779Z,1.20
2018-12-22T11:57:36.999Z,1.33
2018-12-22T12:00:06.528Z,1.10
2018-12-22T12:02:34.797Z,1.30
2018-12-22T12:05:03.125Z,1.30
2018-12-22T12:07:31.323Z,1.10
2018-12-22T12:09:59.642Z,1.60
2018-12-22T12:12:27.862Z,1.40
2018-12-22T12:14:56.262Z,1.80
2018-12-22T12:17:32.052Z,1.40
2018-12-22T12:20:00.470Z,1.33
2018-12-22T12:22:28.645Z,1.30
2018-12-22T12:24:56.922Z,1.57
2018-12-22T12:27:25.092Z,1.97
2018-12-22T12:29:53.267Z,2.00
2018-12-22T12:32:21.510Z,1.70
2018-12-22T12:34:56.070Z,2.10
2018-12-22T12:37:24.502Z,2.10
2018-12-22T12:39:52.726Z,2.00
2018-12-22T12:42:21.207Z,1.97
2018-12-22T12:44:49.532Z,2.00
2018-12-22T12:47:18.069Z,1.70
2018-12-22T12:49:46.411Z,1.63
2018-12-22T12:52:14.726Z,1.30
2018-12-22T12:54:43.095Z,2.17
2018-12-22T12:57:11.509Z,1.90
2018-12-22T12:59:39.926Z,2.03
2018-12-22T13:02:08.951Z,1.93
2018-12-22T13:04:37.357Z,1.53
2018-12-22T13:07:05.663Z,1.73
2018-12-22T13:09:33.915Z,1.90
2018-12-22T13:12:20.901Z,1.53
2018-12-22T13:14:50.832Z,1.90
2018-12-22T13:17:19.500Z,2.07
2018-12-22T13:19:54.801Z,1.80
2018-12-22T13:22:23.997Z,1.90
2018-12-22T13:24:52.368Z,2.07
2018-12-22T13:27:20.729Z,2.10
2018-12-22T13:29:48.999Z,2.97
2018-12-22T13:32:17.606Z,2.07
2018-12-22T13:34:46.990Z,1.43
2018-12-22T13:37:15.204Z,1.50
2018-12-22T13:39:43.507Z,1.60
2018-12-22T13:42:11.842Z,2.00
2018-12-22T13:44:44.648Z,2.10
2018-12-22T13:47:13.027Z,2.20
2018-12-22T13:49:41.484Z,2.60
2018-12-22T13:52:10.225Z,2.40
2018-12-22T13:54:38.544Z,2.80
2018-12-22T13:57:06.903Z,1.87
2018-12-22T13:59:35.592Z,1.60
2018-12-22T14:02:07.406Z,2.40
2018-12-22T14:04:36.494Z,2.13
2018-12-22T14:07:07.014Z,2.10
2018-12-22T14:09:35.366Z,1.97
2018-12-22T14:12:03.760Z,2.10
2018-12-22T14:14:35.057Z,1.70
2018-12-22T14:17:18.703Z,1.60
2018-12-22T14:19:53.470Z,1.70
2018-12-22T14:22:21.646Z,1.43
2018-12-22T14:24:52.040Z,1.70
2018-12-22T14:27:20.498Z,1.70
2018-12-22T14:29:48.809Z,1.73
2018-12-22T14:32:26.676Z,1.47
2018-12-22T14:34:55.084Z,1.70
2018-12-22T14:37:23.337Z,1.57
2018-12-22T14:39:51.904Z,1.53
2018-12-22T14:42:20.180Z,1.67
2018-12-22T14:44:48.371Z,1.40
2018-12-22T14:47:16.754Z,1.77
2018-12-22T14:49:45.118Z,1.57
2018-12-22T14:52:13.748Z,1.43
2018-12-22T14:54:45.280Z,1.73
2018-12-22T14:57:13.601Z,1.70
2018-12-22T14:59:42.513Z,1.87
2018-12-22T15:02:10.796Z,2.10
2018-12-22T15:04:40.034Z,1.80
2018-12-22T15:07:08.560Z,2.20
2018-12-22T15:09:36.906Z,1.90
2018-12-22T15:12:07.528Z,5.57
2018-12-22T15:14:40.888Z,5.53
2018-12-22T15:17:09.932Z,1.80
2018-12-22T15:19:39.334Z,1.57
2018-12-22T15:22:07.660Z,2.10
2018-12-22T15:24:35.899Z,1.67
2018-12-22T15:27:04.498Z,2.03
2018-12-22T15:29:36.330Z,1.63
2018-12-22T15:32:05.710Z,1.97
2018-12-22T15:34:42.746Z,1.70
2018-12-22T15:37:11.080Z,1.47
2018-12-22T15:39:39.274Z,1.80
2018-12-22T15:42:07.764Z,1.80
2018-12-22T15:44:35.914Z,1.70
2018-12-22T15:47:04.601Z,1.70
2018-12-22T15:49:32.876Z,1.50
2018-12-22T15:52:02.332Z,2.20
2018-12-22T15:54:30.918Z,2.03
2018-12-22T15:56:59.384Z,2.07
2018-12-22T15:59:27.640Z,3.90
2018-12-22T16:01:56.013Z,3.37
2018-12-22T16:04:24.320Z,5.53
2018-12-22T16:06:52.836Z,6.60
2018-12-22T16:09:21.374Z,4.27
2018-12-22T16:11:50.296Z,12.07
2018-12-22T16:14:18.989Z,13.10
2018-12-22T16:16:47.608Z,3.20
2018-12-22T16:19:16.147Z,5.57
2018-12-22T16:21:44.512Z,7.20
2018-12-22T16:24:12.855Z,3.10
2018-12-22T16:26:41.045Z,4.80
2018-12-22T16:29:34.138Z,3.87
2018-12-22T16:32:03.035Z,4.07
2018-12-22T16:34:31.451Z,3.50
2018-12-22T16:36:59.837Z,2.70
2018-12-22T16:39:28.259Z,2.50
2018-12-22T16:41:59.988Z,2.67
2018-12-22T16:44:28.214Z,2.53
2018-12-22T16:46:56.593Z,2.83
2018-12-22T16:49:24.804Z,2.70
2018-12-22T16:51:53.075Z,3.57
2018-12-22T16:54:21.385Z,3.07
2018-12-22T16:56:49.939Z,2.90
2018-12-22T16:59:18.347Z,2.57
2018-12-22T17:02:00.437Z,3.10
2018-12-22T17:04:28.691Z,2.87
2018-12-22T17:06:59.763Z,3.30
2018-12-22T17:09:33.551Z,3.10
2018-12-22T17:12:02.012Z,2.87
2018-12-22T17:14:30.347Z,3.40
2018-12-22T17:16:58.596Z,3.47
2018-12-22T17:19:26.835Z,3.33
2018-12-22T17:22:06.023Z,3.60
2018-12-22T17:24:54.731Z,4.00
2018-12-22T17:27:22.927Z,3.77
2018-12-22T17:29:51.173Z,3.57
2018-12-22T17:32:19.566Z,3.93
2018-12-22T17:34:47.768Z,4.57
2018-12-22T17:37:17.130Z,4.20
2018-12-22T17:39:45.427Z,4.70
2018-12-22T17:42:13.762Z,4.53
2018-12-22T17:44:41.989Z,5.03
2018-12-22T17:47:10.184Z,4.83
2018-12-22T17:49:38.534Z,4.30
2018-12-22T17:52:06.862Z,4.90
2018-12-22T17:54:35.096Z,4.80
2018-12-22T17:57:04.855Z,5.83
2018-12-22T17:59:33.080Z,6.60
2018-12-22T18:02:01.924Z,5.93
2018-12-22T18:04:30.196Z,6.53
2018-12-22T18:06:58.544Z,6.57
2018-12-22T18:09:27.003Z,7.00
2018-12-22T18:11:55.240Z,5.90
2018-12-22T18:14:23.779Z,6.30
2018-12-22T18:16:52.208Z,5.80
2018-12-22T18:19:20.488Z,6.00
2018-12-22T18:21:48.746Z,6.37
2018-12-22T18:24:17.259Z,6.77
2018-12-22T18:26:45.568Z,6.67
2018-12-22T18:29:14.050Z,7.67
2018-12-22T18:31:42.309Z,8.30
2018-12-22T18:34:10.792Z,7.50
2018-12-22T18:36:39.457Z,8.37
2018-12-22T18:39:07.947Z,7.20
2018-12-22T18:41:36.664Z,7.70
2018-12-22T18:44:05.102Z,8.40
2018-12-22T18:46:33.408Z,9.20
2018-12-22T18:49:01.698Z,9.67
2018-12-22T18:51:29.971Z,8.83
2018-12-22T18:53:58.415Z,9.80
2018-12-22T18:56:26.715Z,10.17
2018-12-22T18:58:56.174Z,9.07
2018-12-22T19:01:24.579Z,9.90
2018-12-22T19:03:53.017Z,8.70
2018-12-22T19:06:21.384Z,10.37
2018-12-22T19:08:50.859Z,10.00
2018-12-22T19:11:21.214Z,9.67
2018-12-22T19:13:49.578Z,10.47
2018-12-22T19:16:17.913Z,9.57
2018-12-22T19:18:46.123Z,11.20
2018-12-22T19:21:14.471Z,10.90
2018-12-22T19:23:42.785Z,8.90
2018-12-22T19:26:11.114Z,8.67
2018-12-22T19:28:39.384Z,8.97
2018-12-22T19:31:07.733Z,9.20
2018-12-22T19:33:36.007Z,8.13
2018-12-22T19:36:04.332Z,8.33
2018-12-22T19:38:32.616Z,7.73
2018-12-22T19:41:00.899Z,8.30
2018-12-22T19:43:29.104Z,9.33
2018-12-22T19:45:57.440Z,9.67
2018-12-22T19:48:25.722Z,10.77
2018-12-22T19:50:53.915Z,9.93
2018-12-22T19:53:22.121Z,10.43
2018-12-22T19:55:50.323Z,9.93
2018-12-22T19:58:18.629Z,10.70
2018-12-22T20:00:46.793Z,10.23
2018-12-22T20:03:15.113Z,9.13
2018-12-22T20:05:43.381Z,10.27
2018-12-22T20:08:11.670Z,10.13
2018-12-22T20:10:39.865Z,10.77
2018-12-22T20:13:08.135Z,9.03
2018-12-22T20:15:36.421Z,11.07
2018-12-22T20:18:04.621Z,11.83
2018-12-22T20:20:33.047Z,11.00
2018-12-22T20:23:01.259Z,9.80
2018-12-22T20:25:29.543Z,9.27
2018-12-22T20:27:57.735Z,11.33
2018-12-22T20:30:26.032Z,12.50
2018-12-22T20:32:56.341Z,11.40
2018-12-22T20:35:24.559Z,12.60
2018-12-22T20:37:52.847Z,12.00
2018-12-22T20:40:21.149Z,12.20
2018-12-22T20:42:49.398Z,12.40
2018-12-22T20:45:17.740Z,11.50
2018-12-22T20:47:46.091Z,10.20
2018-12-22T20:50:14.352Z,11.43
2018-12-22T20:52:42.641Z,11.00
2018-12-22T20:55:10.927Z,11.97
2018-12-22T20:57:39.340Z,11.83
2018-12-22T21:00:09.944Z,11.37
2018-12-22T21:02:38.304Z,10.93
2018-12-22T21:05:06.669Z,11.33
2018-12-22T21:07:35.054Z,10.60
2018-12-22T21:10:03.625Z,11.33
2018-12-22T21:12:31.878Z,12.67
2018-12-22T21:15:00.084Z,11.57
2018-12-22T21:17:28.430Z,12.17
2018-12-22T21:19:56.612Z,12.40
2018-12-22T21:22:25.003Z,11.30
2018-12-22T21:24:53.314Z,12.47
2018-12-22T21:27:21.619Z,12.43
2018-12-22T21:29:49.812Z,12.47
2018-12-22T21:32:19.888Z,12.40
2018-12-22T21:34:48.129Z,11.60
2018-12-22T21:37:16.324Z,11.83
2018-12-22T21:39:44.581Z,13.27
2018-12-22T21:42:13.040Z,13.10
2018-12-22T21:44:41.286Z,12.53
2018-12-22T21:47:09.720Z,12.57
2018-12-22T21:49:37.966Z,14.30
2018-12-22T21:52:06.140Z,14.33
2018-12-22T21:54:34.381Z,14.97
2018-12-22T21:57:02.583Z,15.37
2018-12-22T21:59:30.792Z,16.30
2018-12-22T22:01:59.110Z,14.97
2018-12-22T22:04:27.405Z,15.13
2018-12-22T22:07:02.077Z,14.43
2018-12-22T22:09:30.283Z,15.80
2018-12-22T22:11:58.562Z,15.47
2018-12-22T22:14:26.802Z,15.03
2018-12-22T22:16:55.206Z,15.50
2018-12-22T22:19:23.917Z,15.93
2018-12-22T22:21:52.163Z,14.63
2018-12-22T22:24:20.481Z,15.50
2018-12-22T22:26:48.767Z,15.50
2018-12-22T22:29:17.094Z,16.10
2018-12-22T22:31:45.289Z,17.17
2018-12-22T22:34:14.101Z,16.60
2018-12-22T22:36:42.433Z,15.93
2018-12-22T22:39:10.653Z,17.27
2018-12-22T22:44:37.505Z,17.03
2018-12-22T22:47:05.808Z,16.93
2018-12-22T22:49:34.164Z,18.00
2018-12-22T22:52:02.367Z,18.40
2018-12-22T22:54:30.664Z,17.27
2018-12-22T22:56:59.482Z,17.60
2018-12-22T22:59:27.941Z,17.03
2018-12-22T23:02:00.643Z,18.17
2018-12-22T23:04:29.165Z,16.10
2018-12-22T23:07:24.393Z,16.57
2018-12-22T23:09:53.094Z,15.67
2018-12-22T23:12:22.153Z,15.80
2018-12-22T23:14:50.463Z,16.40
2018-12-22T23:17:18.727Z,16.17
2018-12-22T23:19:46.915Z,16.97
2018-12-22T23:22:21.403Z,16.60
2018-12-22T23:24:49.799Z,15.60
2018-12-22T23:27:18.248Z,17.20
2018-12-22T23:29:46.647Z,14.80
2018-12-22T23:32:15.209Z,15.20
2018-12-22T23:34:43.442Z,15.03
2018-12-22T23:37:12.073Z,13.73
2018-12-22T23:39:40.263Z,14.03
2018-12-22T23:42:10.775Z,14.10
2018-12-22T23:44:39.034Z,13.47
2018-12-22T23:47:07.380Z,11.60
2018-12-22T23:49:41.353Z,12.10
2018-12-22T23:52:09.713Z,11.90
2018-12-22T23:54:38.017Z,12.00
2018-12-22T23:57:06.220Z,11.80
2018-12-22T23:59:34.502Z,12.60
